createdAt,value
2023-02-11T00:01:29.971Z,39.68
2023-02-11T00:03:56.952Z,41.22
2023-02-11T00:06:23.950Z,41.62
2023-02-11T00:08:51.881Z,41.08
2023-02-11T00:11:20.694Z,42.51
2023-02-11T00:13:48.668Z,41.54
2023-02-11T00:16:16.943Z,42.62
2023-02-11T00:18:43.791Z,42.46
2023-02-11T00:21:17.818Z,40.38
2023-02-11T00:23:45.022Z,40.86
2023-02-11T00:26:23.695Z,41.14
2023-02-11T00:28:50.527Z,40.53
2023-02-11T00:31:18.146Z,41.26
2023-02-11T00:33:46.289Z,41.58
2023-02-11T00:36:26.066Z,42.52
2023-02-11T00:38:53.350Z,42.77
2023-02-11T00:41:21.610Z,41.34
2023-02-11T00:43:48.362Z,42.96
2023-02-11T00:46:15.381Z,42.77
2023-02-11T00:48:42.353Z,43.32
2023-02-11T00:51:09.223Z,41.85
2023-02-11T00:53:36.183Z,42.02
2023-02-11T00:56:05.789Z,41.86
2023-02-11T00:58:32.594Z,41.18
2023-02-11T01:00:59.765Z,41.58
2023-02-11T01:03:26.601Z,41.76
2023-02-11T01:05:53.445Z,42.63
2023-02-11T01:08:20.246Z,42.58
2023-02-11T01:11:03.047Z,41.43
2023-02-11T01:13:29.930Z,41.15
2023-02-11T01:15:57.168Z,39.83
2023-02-11T01:18:25.263Z,38.19
2023-02-11T01:20:52.585Z,38.56
2023-02-11T01:23:19.406Z,37.80
2023-02-11T01:25:46.126Z,36.45
2023-02-11T01:28:20.357Z,34.91
2023-02-11T01:30:48.280Z,34.47
2023-02-11T01:33:15.032Z,34.40
2023-02-11T01:35:42.829Z,35.91
2023-02-11T01:38:18.950Z,33.93
2023-02-11T01:40:56.218Z,34.03
2023-02-11T01:43:23.942Z,34.35
2023-02-11T01:46:14.064Z,34.57
2023-02-11T01:49:03.334Z,36.15
2023-02-11T01:51:42.301Z,36.15
2023-02-11T01:54:09.593Z,35.39
2023-02-11T01:56:39.861Z,35.67
2023-02-11T01:59:34.858Z,35.83
2023-02-11T02:02:04.563Z,37.74
2023-02-11T02:04:36.001Z,38.28
2023-02-11T02:07:06.846Z,39.48
2023-02-11T02:09:37.239Z,39.91
2023-02-11T02:12:04.090Z,40.11
2023-02-11T02:14:30.948Z,38.91
2023-02-11T02:16:57.662Z,38.89
2023-02-11T02:20:18.535Z,39.14
2023-02-11T02:23:06.299Z,38.52
2023-02-11T02:25:48.115Z,38.72
2023-02-11T02:28:36.946Z,38.27
2023-02-11T02:31:06.703Z,36.86
2023-02-11T02:34:06.612Z,36.80
2023-02-11T02:36:36.223Z,37.45
2023-02-11T02:39:08.911Z,37.15
2023-02-11T02:41:55.441Z,37.88
2023-02-11T02:44:22.299Z,39.78
2023-02-11T02:46:49.452Z,40.75
2023-02-11T02:49:16.536Z,43.92
2023-02-11T02:52:01.672Z,44.02
2023-02-11T02:54:59.316Z,43.23
2023-02-11T02:57:45.825Z,41.85
2023-02-11T03:00:31.921Z,43.22
2023-02-11T03:03:21.880Z,42.70
2023-02-11T03:05:51.709Z,42.66
2023-02-11T03:11:32.962Z,42.56
2023-02-11T03:14:00.408Z,41.47
2023-02-11T03:16:27.647Z,41.86
2023-02-11T03:19:00.911Z,42.37
2023-02-11T03:21:28.994Z,43.47
2023-02-11T03:23:57.634Z,43.57
2023-02-11T03:26:34.865Z,44.91
2023-02-11T03:29:42.853Z,44.07
2023-02-11T03:32:32.582Z,42.94
2023-02-11T03:35:14.849Z,43.96
2023-02-11T03:38:02.625Z,43.01
2023-02-11T03:40:31.795Z,43.78
2023-02-11T03:43:00.911Z,43.68
2023-02-11T03:45:27.674Z,43.16
2023-02-11T03:48:07.832Z,43.66
2023-02-11T03:50:34.702Z,41.30
2023-02-11T03:53:02.318Z,40.56
2023-02-11T03:55:29.288Z,40.18
2023-02-11T03:57:56.286Z,39.74
2023-02-11T04:00:32.834Z,39.47
2023-02-11T04:02:59.560Z,39.20
2023-02-11T04:05:26.258Z,38.06
2023-02-11T04:07:53.351Z,38.27
2023-02-11T04:10:20.471Z,38.33
2023-02-11T04:13:07.126Z,36.87
2023-02-11T04:15:33.863Z,37.28
2023-02-11T04:18:01.009Z,36.86
2023-02-11T04:20:27.768Z,36.87
2023-02-11T04:22:54.653Z,37.24
2023-02-11T04:25:21.379Z,37.17
2023-02-11T04:27:48.153Z,36.33
2023-02-11T04:30:14.883Z,36.53
2023-02-11T04:32:41.659Z,36.09
2023-02-11T04:35:09.546Z,37.07
2023-02-11T04:37:36.347Z,36.20
2023-02-11T04:40:03.186Z,35.78
2023-02-11T04:42:30.332Z,36.18
2023-02-11T04:44:57.111Z,36.56
2023-02-11T04:47:24.202Z,35.63
2023-02-11T04:49:51.310Z,35.45
2023-02-11T04:52:18.072Z,35.01
2023-02-11T04:54:44.946Z,35.72
2023-02-11T04:57:11.722Z,35.85
2023-02-11T04:59:38.612Z,34.94
2023-02-11T05:02:05.709Z,34.50
2023-02-11T05:04:32.818Z,35.12
2023-02-11T05:07:00.068Z,35.15
2023-02-11T05:09:27.167Z,35.24
2023-02-11T05:11:54.173Z,35.94
2023-02-11T05:14:20.942Z,35.66
2023-02-11T05:16:48.134Z,35.45
2023-02-11T05:19:14.983Z,35.23
2023-02-11T05:21:53.179Z,36.17
2023-02-11T05:25:06.049Z,35.38
2023-02-11T05:27:33.300Z,34.10
2023-02-11T05:30:00.137Z,34.05
2023-02-11T05:32:26.887Z,35.30
2023-02-11T05:34:53.753Z,34.89
2023-02-11T05:37:20.572Z,33.64
2023-02-11T05:39:47.429Z,33.49
2023-02-11T05:42:14.944Z,33.88
2023-02-11T05:44:42.100Z,33.32
2023-02-11T05:47:08.888Z,32.38
2023-02-11T05:50:19.035Z,32.93
2023-02-11T05:52:46.160Z,32.28
2023-02-11T05:55:13.517Z,31.54
2023-02-11T05:57:40.300Z,31.86
2023-02-11T06:00:07.384Z,32.22
2023-02-11T06:02:34.169Z,32.47
2023-02-11T06:05:00.932Z,31.90
2023-02-11T06:07:27.750Z,32.43
2023-02-11T06:09:54.527Z,31.89
2023-02-11T06:12:21.919Z,31.80
2023-02-11T06:14:48.758Z,31.17
2023-02-11T06:17:15.856Z,30.67
2023-02-11T06:19:42.626Z,30.28
2023-02-11T06:22:09.375Z,30.57
2023-02-11T06:24:59.748Z,29.85
2023-02-11T06:27:24.374Z,29.10
2023-02-11T06:29:51.080Z,29.39
2023-02-11T06:32:39.315Z,28.22
2023-02-11T06:35:05.229Z,31.45
2023-02-11T06:37:33.528Z,29.06
2023-02-11T06:40:00.286Z,29.08
2023-02-11T06:42:27.426Z,29.55
2023-02-11T06:44:54.334Z,29.39
2023-02-11T06:47:21.178Z,29.15
2023-02-11T06:50:30.880Z,28.59
2023-02-11T06:52:59.378Z,28.92
2023-02-11T06:55:26.307Z,29.91
2023-02-11T06:57:54.335Z,30.30
2023-02-11T07:00:21.157Z,30.50
2023-02-11T07:02:47.918Z,29.90
2023-02-11T07:05:14.975Z,31.03
2023-02-11T07:07:41.702Z,31.07
2023-02-11T07:10:08.624Z,30.76
2023-02-11T07:12:35.741Z,30.55
2023-02-11T07:15:03.049Z,31.90
2023-02-11T07:17:29.758Z,33.26
2023-02-11T07:19:58.341Z,34.33
2023-02-11T07:22:27.324Z,33.37
2023-02-11T07:24:54.041Z,35.16
2023-02-11T07:27:20.798Z,35.29
2023-02-11T07:29:47.522Z,35.29
2023-02-11T07:32:15.653Z,34.60
2023-02-11T07:34:42.601Z,35.46
2023-02-11T07:37:09.654Z,34.71
2023-02-11T07:39:36.338Z,34.52
2023-02-11T07:42:03.493Z,34.29
2023-02-11T07:44:30.691Z,34.99
2023-02-11T07:46:57.666Z,33.84
2023-02-11T07:49:24.548Z,34.56
2023-02-11T07:51:51.484Z,34.35
2023-02-11T07:54:18.387Z,34.89
2023-02-11T07:56:45.182Z,35.84
2023-02-11T07:59:12.307Z,34.78
2023-02-11T08:01:42.294Z,35.72
2023-02-11T08:04:09.688Z,36.04
2023-02-11T08:06:40.909Z,35.66
2023-02-11T08:09:07.967Z,36.88
2023-02-11T08:11:34.685Z,36.73
2023-02-11T08:14:01.442Z,36.93
2023-02-11T08:16:48.169Z,35.91
2023-02-11T08:19:16.016Z,36.97
2023-02-11T08:21:42.892Z,36.68
2023-02-11T08:24:09.759Z,37.58
2023-02-11T08:26:36.556Z,39.74
2023-02-11T08:29:11.197Z,40.22
2023-02-11T08:31:40.956Z,41.02
2023-02-11T08:34:07.817Z,40.32
2023-02-11T08:36:36.121Z,41.61
2023-02-11T08:39:19.540Z,43.00
2023-02-11T08:41:53.729Z,43.45
2023-02-11T08:44:23.822Z,43.22
2023-02-11T08:46:50.790Z,43.35
2023-02-11T08:49:17.580Z,43.90
2023-02-11T08:51:44.334Z,43.62
2023-02-11T08:54:11.528Z,43.89
2023-02-11T08:56:38.283Z,42.95
2023-02-11T08:59:06.440Z,42.15
2023-02-11T09:01:33.320Z,40.24
2023-02-11T09:04:01.300Z,41.37
2023-02-11T09:06:29.436Z,42.03
2023-02-11T09:08:59.127Z,41.93
2023-02-11T09:11:31.575Z,40.23
2023-02-11T09:13:59.678Z,41.20
2023-02-11T09:16:28.445Z,40.97
2023-02-11T09:18:57.391Z,40.26
2023-02-11T09:21:24.209Z,39.37
2023-02-11T09:23:51.271Z,38.75
2023-02-11T09:26:36.904Z,38.45
2023-02-11T09:29:03.990Z,39.24
2023-02-11T09:31:50.731Z,39.33
2023-02-11T09:34:17.499Z,38.99
2023-02-11T09:37:04.073Z,39.23
2023-02-11T09:39:46.766Z,37.54
2023-02-11T09:42:39.991Z,37.96
2023-02-11T09:45:12.933Z,38.84
2023-02-11T09:47:47.737Z,38.90
2023-02-11T09:50:36.998Z,38.19
2023-02-11T09:53:05.103Z,37.46
2023-02-11T09:55:55.343Z,38.12
2023-02-11T09:58:26.469Z,41.42
2023-02-11T10:01:30.134Z,43.38
2023-02-11T10:04:04.556Z,44.28
2023-02-11T10:06:45.621Z,44.13
2023-02-11T10:09:17.069Z,45.97
2023-02-11T10:11:55.807Z,45.33
2023-02-11T10:14:47.346Z,45.43
2023-02-11T10:18:07.957Z,44.55
2023-02-11T10:20:38.573Z,45.09
2023-02-11T10:23:30.657Z,45.74
2023-02-11T10:25:57.964Z,45.07
2023-02-11T10:28:31.159Z,45.25
2023-02-11T10:31:12.195Z,49.13
2023-02-11T10:34:07.079Z,46.15
2023-02-11T10:36:37.343Z,45.61
2023-02-11T10:39:18.099Z,45.66
2023-02-11T10:41:46.603Z,44.71
2023-02-11T10:44:43.330Z,45.59
2023-02-11T10:47:17.082Z,47.20
2023-02-11T10:49:45.116Z,46.88
2023-02-11T10:52:17.920Z,46.89
2023-02-11T10:55:06.404Z,47.88
2023-02-11T10:57:35.459Z,48.15
2023-02-11T11:00:24.138Z,47.82
2023-02-11T11:02:59.048Z,47.33
2023-02-11T11:05:31.544Z,47.45
2023-02-11T11:08:06.207Z,47.74
2023-02-11T11:10:41.396Z,47.01
2023-02-11T11:13:24.693Z,47.93
2023-02-11T11:16:13.838Z,47.08
2023-02-11T11:18:42.085Z,47.74
2023-02-11T11:21:16.314Z,48.07
2023-02-11T11:23:59.648Z,47.77
2023-02-11T11:26:28.480Z,47.62
2023-02-11T11:29:02.924Z,48.88
2023-02-11T11:31:46.473Z,49.65
2023-02-11T11:34:22.137Z,50.21
2023-02-11T11:36:48.988Z,49.69
2023-02-11T11:39:23.146Z,49.23
2023-02-11T11:41:57.142Z,49.17
2023-02-11T11:44:35.574Z,48.64
2023-02-11T11:47:11.402Z,47.91
2023-02-11T11:50:00.036Z,48.26
2023-02-11T11:52:52.114Z,48.45
2023-02-11T11:55:35.058Z,48.28
2023-02-11T11:58:01.807Z,48.28
2023-02-11T12:00:37.346Z,48.47
2023-02-11T12:03:36.527Z,47.98
2023-02-11T12:06:15.604Z,48.32
2023-02-11T12:09:09.327Z,48.64
2023-02-11T12:12:08.284Z,48.18
2023-02-11T12:14:38.832Z,48.04
2023-02-11T12:17:17.832Z,48.12
2023-02-11T12:20:11.997Z,46.57
2023-02-11T12:23:00.321Z,45.37
2023-02-11T12:25:43.976Z,45.78
2023-02-11T12:28:33.496Z,45.35
2023-02-11T12:31:20.781Z,43.47
2023-02-11T12:33:55.360Z,43.61
2023-02-11T12:36:42.547Z,45.11
2023-02-11T12:39:22.257Z,44.79
2023-02-11T12:42:31.081Z,45.53
2023-02-11T12:45:12.976Z,44.45
2023-02-11T12:48:21.504Z,44.17
2023-02-11T12:51:08.588Z,44.23
2023-02-11T12:53:47.853Z,44.02
2023-02-11T12:56:48.214Z,43.58
2023-02-11T12:59:20.811Z,42.34
2023-02-11T13:01:47.609Z,43.28
2023-02-11T13:04:21.338Z,44.11
2023-02-11T13:06:53.819Z,42.31
2023-02-11T13:09:26.728Z,42.24
2023-02-11T13:11:55.499Z,41.91
2023-02-11T13:14:26.688Z,41.97
2023-02-11T13:16:57.704Z,41.82
2023-02-11T13:19:39.269Z,41.74
2023-02-11T13:22:08.187Z,41.23
2023-02-11T13:24:44.831Z,41.15
2023-02-11T13:27:25.276Z,41.51
2023-02-11T13:30:16.784Z,41.82
2023-02-11T13:33:15.682Z,40.74
2023-02-11T13:36:04.547Z,41.85
2023-02-11T13:38:31.730Z,41.02
2023-02-11T13:41:03.132Z,39.95
2023-02-11T13:43:34.260Z,40.08
2023-02-11T13:46:11.223Z,39.81
2023-02-11T13:48:39.831Z,39.11
2023-02-11T13:51:10.869Z,38.75
2023-02-11T13:53:52.302Z,38.50
2023-02-11T13:56:40.835Z,38.31
2023-02-11T13:59:45.744Z,34.33
2023-02-11T14:02:32.538Z,36.80
2023-02-11T14:05:08.198Z,39.71
2023-02-11T14:07:35.084Z,39.29
2023-02-11T14:10:05.275Z,37.50
2023-02-11T14:12:35.019Z,38.43
2023-02-11T14:15:22.640Z,37.11
2023-02-11T14:17:50.357Z,39.00
2023-02-11T14:20:34.895Z,39.03
2023-02-11T14:23:01.611Z,38.79
2023-02-11T14:25:28.355Z,39.64
2023-02-11T14:28:08.319Z,38.24
2023-02-11T14:30:39.988Z,38.28
2023-02-11T14:33:43.222Z,37.52
2023-02-11T14:36:39.060Z,38.64
2023-02-11T14:39:15.220Z,38.59
2023-02-11T14:41:43.515Z,38.78
2023-02-11T14:44:19.589Z,38.72
2023-02-11T14:46:48.053Z,38.14
2023-02-11T14:49:31.334Z,39.08
2023-02-11T14:52:09.060Z,38.28
2023-02-11T14:54:35.815Z,39.53
2023-02-11T14:57:16.739Z,39.40
2023-02-11T15:00:20.140Z,38.44
2023-02-11T15:02:48.418Z,39.32
2023-02-11T15:05:24.360Z,39.56
2023-02-11T15:08:02.768Z,38.55
2023-02-11T15:10:38.089Z,38.06
2023-02-11T15:13:05.166Z,37.63
2023-02-11T15:15:32.339Z,36.98
2023-02-11T15:18:00.812Z,37.57
2023-02-11T15:20:29.708Z,37.62
2023-02-11T15:23:02.895Z,37.68
2023-02-11T15:25:30.715Z,37.45
2023-02-11T15:27:58.575Z,39.15
2023-02-11T15:30:28.874Z,38.92
2023-02-11T15:32:57.357Z,37.88
2023-02-11T15:35:25.167Z,37.74
2023-02-11T15:37:52.181Z,39.39
2023-02-11T15:40:21.156Z,38.05
2023-02-11T15:43:07.757Z,39.73
2023-02-11T15:45:43.222Z,39.90
2023-02-11T15:48:14.368Z,39.48
2023-02-11T15:50:41.560Z,40.79
2023-02-11T15:53:44.936Z,41.47
2023-02-11T15:56:17.926Z,41.18
2023-02-11T15:58:46.225Z,41.12
2023-02-11T16:01:13.270Z,40.86
2023-02-11T16:03:43.212Z,42.32
2023-02-11T16:06:21.772Z,42.52
2023-02-11T16:09:00.621Z,41.97
2023-02-11T16:11:38.281Z,41.27
2023-02-11T16:14:21.786Z,41.86
2023-02-11T16:16:49.273Z,42.05
2023-02-11T16:19:18.437Z,41.36
2023-02-11T16:21:45.138Z,42.68
2023-02-11T16:24:31.780Z,42.94
2023-02-11T16:27:06.804Z,41.60
2023-02-11T16:29:35.793Z,41.89
2023-02-11T16:32:07.915Z,40.76
2023-02-11T16:34:34.814Z,41.27
2023-02-11T16:37:03.593Z,43.66
2023-02-11T16:39:30.602Z,43.10
2023-02-11T16:41:58.045Z,42.50
2023-02-11T16:44:24.837Z,43.36
2023-02-11T16:46:52.520Z,43.96
2023-02-11T16:49:20.226Z,43.91
2023-02-11T16:51:48.873Z,43.03
2023-02-11T16:54:16.207Z,42.77
2023-02-11T16:56:43.269Z,44.34
2023-02-11T16:59:10.038Z,44.14
2023-02-11T17:01:37.974Z,42.87
2023-02-11T17:04:04.824Z,43.25
2023-02-11T17:06:33.221Z,44.42
2023-02-11T17:09:02.508Z,44.16
2023-02-11T17:11:29.182Z,45.45
2023-02-11T17:13:55.861Z,44.81
2023-02-11T17:16:22.980Z,44.11
2023-02-11T17:18:51.066Z,43.51
2023-02-11T17:21:17.842Z,44.26
2023-02-11T17:23:47.682Z,43.87
2023-02-11T17:26:14.709Z,43.41
2023-02-11T17:28:41.418Z,44.30
2023-02-11T17:31:09.681Z,43.77
2023-02-11T17:33:36.801Z,45.19
2023-02-11T17:36:07.684Z,44.96
2023-02-11T17:38:34.923Z,44.48
2023-02-11T17:41:01.814Z,46.68
2023-02-11T17:43:29.977Z,44.90
2023-02-11T17:45:57.018Z,43.84
2023-02-11T17:48:23.980Z,45.16
2023-02-11T17:50:50.669Z,49.88
2023-02-11T17:53:17.378Z,51.09
2023-02-11T17:55:44.097Z,52.86
2023-02-11T17:58:10.902Z,53.93
2023-02-11T18:00:38.271Z,48.84
2023-02-11T18:03:05.011Z,49.55
2023-02-11T18:05:36.157Z,47.68
2023-02-11T18:08:04.040Z,48.30
2023-02-11T18:10:31.082Z,47.60
2023-02-11T18:12:58.315Z,47.53
2023-02-11T18:15:26.414Z,47.73
2023-02-11T18:17:54.905Z,46.14
2023-02-11T18:20:22.019Z,46.57
2023-02-11T18:22:48.811Z,47.78
2023-02-11T18:25:18.636Z,49.43
2023-02-11T18:27:45.494Z,49.73
2023-02-11T18:30:16.938Z,48.91
2023-02-11T18:32:43.645Z,49.60
2023-02-11T18:35:14.384Z,50.53
2023-02-11T18:37:44.471Z,50.17
2023-02-11T18:40:11.574Z,49.79
2023-02-11T18:42:38.708Z,49.03
2023-02-11T18:45:09.332Z,48.71
2023-02-11T18:47:39.535Z,49.25
2023-02-11T18:50:06.889Z,48.81
2023-02-11T18:52:34.272Z,48.37
2023-02-11T18:55:01.361Z,49.98
2023-02-11T18:57:28.494Z,48.93
2023-02-11T18:59:55.278Z,48.31
2023-02-11T19:02:24.817Z,50.00
2023-02-11T19:04:51.531Z,49.51
2023-02-11T19:07:18.655Z,50.07
2023-02-11T19:09:45.693Z,50.45
2023-02-11T19:12:12.878Z,49.93
2023-02-11T19:14:39.627Z,51.32
2023-02-11T19:17:06.934Z,50.58
2023-02-11T19:19:35.610Z,51.38
2023-02-11T19:22:02.782Z,51.34
2023-02-11T19:24:29.587Z,51.46
2023-02-11T19:26:57.589Z,50.65
2023-02-11T19:29:26.324Z,51.68
2023-02-11T19:31:53.171Z,52.86
2023-02-11T19:34:21.207Z,53.83
2023-02-11T19:36:48.825Z,52.31
2023-02-11T19:39:15.606Z,52.62
2023-02-11T19:41:43.531Z,52.96
2023-02-11T19:44:10.306Z,51.68
2023-02-11T19:46:38.019Z,54.79
2023-02-11T19:49:04.913Z,51.70
2023-02-11T19:51:31.976Z,50.37
2023-02-11T19:53:58.709Z,50.65
2023-02-11T19:56:26.505Z,51.14
2023-02-11T19:58:53.247Z,52.31
2023-02-11T20:01:20.864Z,55.25
2023-02-11T20:03:51.701Z,55.93
2023-02-11T20:06:24.181Z,56.50
2023-02-11T20:08:59.104Z,54.63
2023-02-11T20:11:25.940Z,54.43
2023-02-11T20:13:53.001Z,54.33
2023-02-11T20:16:21.300Z,54.86
2023-02-11T20:18:49.181Z,52.11
2023-02-11T20:21:31.042Z,52.92
2023-02-11T20:23:58.021Z,53.07
2023-02-11T20:26:32.286Z,51.61
2023-02-11T20:28:59.925Z,53.23
2023-02-11T20:31:27.061Z,53.77
2023-02-11T20:33:53.827Z,53.08
2023-02-11T20:36:24.649Z,52.33
2023-02-11T20:38:51.730Z,53.41
2023-02-11T20:41:24.358Z,51.75
2023-02-11T20:43:54.187Z,53.21
2023-02-11T20:46:26.829Z,53.08
2023-02-11T20:48:54.462Z,52.04
2023-02-11T20:51:28.903Z,52.48
2023-02-11T20:53:55.730Z,51.76
2023-02-11T20:56:24.006Z,49.36
2023-02-11T20:58:50.907Z,48.20
2023-02-11T21:01:38.377Z,47.18
2023-02-11T21:04:16.305Z,48.02
2023-02-11T21:06:48.150Z,48.30
2023-02-11T21:09:17.194Z,47.93
2023-02-11T21:11:43.881Z,47.65
2023-02-11T21:14:11.063Z,45.57
2023-02-11T21:16:37.762Z,45.62
2023-02-11T21:19:04.529Z,45.84
2023-02-11T21:21:31.382Z,44.11
2023-02-11T21:23:59.031Z,44.49
2023-02-11T21:26:25.731Z,43.20
2023-02-11T21:28:52.538Z,44.92
2023-02-11T21:31:21.757Z,42.75
2023-02-11T21:33:50.624Z,41.56
2023-02-11T21:36:17.503Z,41.04
2023-02-11T21:38:45.083Z,42.41
2023-02-11T21:41:11.775Z,42.58
2023-02-11T21:43:38.553Z,43.06
2023-02-11T21:46:10.863Z,44.15
2023-02-11T21:48:38.568Z,43.51
2023-02-11T21:51:07.269Z,42.87
2023-02-11T21:53:35.317Z,41.40
2023-02-11T21:56:12.868Z,42.16
2023-02-11T21:58:42.764Z,41.51
2023-02-11T22:01:16.651Z,39.96
2023-02-11T22:03:54.765Z,38.34
2023-02-11T22:06:30.262Z,37.42
2023-02-11T22:09:12.613Z,36.79
2023-02-11T22:11:42.179Z,37.54
2023-02-11T22:14:12.025Z,36.39
2023-02-11T22:16:39.137Z,35.32
2023-02-11T22:19:05.879Z,34.55
2023-02-11T22:21:33.053Z,33.57
2023-02-11T22:24:04.936Z,33.69
2023-02-11T22:26:32.175Z,33.31
2023-02-11T22:28:59.957Z,33.27
2023-02-11T22:31:29.403Z,32.56
2023-02-11T22:33:56.420Z,30.69
2023-02-11T22:36:25.032Z,29.90
2023-02-11T22:38:52.124Z,29.49
2023-02-11T22:41:19.271Z,30.03
2023-02-11T22:43:46.364Z,29.46
2023-02-11T22:46:16.118Z,29.45
2023-02-11T22:48:42.933Z,30.16
2023-02-11T22:51:14.904Z,29.00
2023-02-11T22:53:41.611Z,30.11
2023-02-11T22:56:14.802Z,31.25
2023-02-11T22:58:42.131Z,29.80
2023-02-11T23:01:09.212Z,31.84
2023-02-11T23:03:36.271Z,31.24
2023-02-11T23:06:03.371Z,32.56
2023-02-11T23:08:30.135Z,32.61
2023-02-11T23:11:04.727Z,33.07
2023-02-11T23:13:40.904Z,32.66
2023-02-11T23:16:09.655Z,32.43
2023-02-11T23:18:38.044Z,32.38
2023-02-11T23:21:10.092Z,32.89
2023-02-11T23:23:40.450Z,33.33
2023-02-11T23:26:10.903Z,33.09
2023-02-11T23:28:38.256Z,33.08
2023-02-11T23:31:29.647Z,32.89
2023-02-11T23:33:59.399Z,34.12
2023-02-11T23:36:26.416Z,34.86
2023-02-11T23:38:53.621Z,34.79
2023-02-11T23:41:20.702Z,33.80
2023-02-11T23:43:57.246Z,34.59
2023-02-11T23:46:29.353Z,35.17
2023-02-11T23:48:56.468Z,33.91
2023-02-11T23:51:23.690Z,34.80
2023-02-11T23:53:56.600Z,35.24
2023-02-11T23:56:28.741Z,35.75
2023-02-11T23:58:57.248Z,34.68
